Souhou Maru — JD3702 — position and weather

sailwx.info

Track history (hours):
 
Tides and Currents Weather Stations Pressure Air Temp Water Temp Dewpoint Dewpoint Depression Visibility Wind Speed Wind Dir Waves Ship Positions

Souhou Maru

Last reported at 2018-Apr-25 13:00 UTC. Time now 2018-Apr-25 16:13 UTC.
Position N 33°47' E 135°05'.

Length 70 m; draft 3.8 m.

Type: Cargo ship. MMSI: 431005315.

Date/timePositionNaut miles runAvg speedWind from/ knotsBaromVisibWave heightAir tempDewpointWater temp
2018-Apr-25 13:00N 33°47' E 135°05'612.6
2018-Apr-25 12:30N 33°53' E 135°02'612.4
2018-Apr-25 11:59N 33°59' E 135°01'612.2
2018-Apr-25 11:31N 34°05' E 135°01'612.2
2018-Apr-25 11:01N 34°11' E 135°02'612.2
2018-Apr-25 10:30N 34°17' E 135°04'612.1
2018-Apr-25 10:00N 34°23' E 135°07'612.8
2018-Apr-25 09:31N 34°27' E 135°12'612.6
2018-Apr-25 09:00N 34°32' E 135°17'612.6
2018-Apr-25 08:30N 34°36' E 135°23'4 8.2
2018-Apr-25 08:00N 34°35' E 135°27'0 0.0
2018-Apr-25 07:31N 34°35' E 135°27'0 0.0
2018-Apr-25 07:01N 34°35' E 135°27'0 0.0
2018-Apr-25 06:31N 34°35' E 135°27'0 0.0
2018-Apr-25 06:00N 34°35' E 135°27'0 0.0
2018-Apr-25 05:30N 34°35' E 135°27'0 0.0
2018-Apr-25 05:00N 34°35' E 135°27'0 0.0
2018-Apr-25 04:30N 34°35' E 135°27'0 0.0
2018-Apr-25 04:00N 34°35' E 135°27'0 0.0
2018-Apr-25 03:30N 34°35' E 135°27'0 0.0
2018-Apr-25 03:01N 34°35' E 135°27'0 0.0
2018-Apr-25 02:31N 34°35' E 135°27'0 0.0
2018-Apr-25 02:00N 34°35' E 135°27'0 0.0
2018-Apr-25 01:30N 34°35' E 135°27'0 0.0
2018-Apr-25 01:00N 34°35' E 135°27'0 0.0
2018-Apr-25 00:31N 34°35' E 135°27'0 0.0
2018-Apr-25 00:01N 34°35' E 135°27'0 0.0
2018-Apr-24 23:31N 34°35' E 135°27'0 0.0
2018-Apr-24 23:01N 34°35' E 135°27'2 3.6
2018-Apr-24 22:31N 34°36' E 135°25'3 5.3
2018-Apr-24 22:00N 34°36' E 135°22'0 0.0
2018-Apr-24 21:31N 34°36' E 135°22'0 0.0
2018-Apr-24 21:00N 34°36' E 135°22'0 0.0
2018-Apr-24 20:31N 34°36' E 135°22'0 0.1
2018-Apr-24 20:00N 34°36' E 135°22'0 0.1
2018-Apr-24 19:30N 34°36' E 135°22'0 0.1
2018-Apr-24 19:00N 34°36' E 135°22'0 0.0
2018-Apr-24 18:30N 34°36' E 135°22'0 0.1
2018-Apr-24 18:00N 34°36' E 135°22'3 5.2
2018-Apr-24 17:31N 34°34' E 135°20'611.0
2018-Apr-24 17:00N 34°30' E 135°15'611.0
2018-Apr-24 16:30N 34°27' E 135°10'611.6
2018-Apr-24 16:00N 34°22' E 135°05'611.7
2018-Apr-24 15:30N 34°18' E 135°00'5 9.7
2018-Apr-24 15:00N 34°13' E 134°59'611.1
2018-Apr-24 14:30N 34°08' E 134°60'611.7
2018-Apr-24 14:01N 34°02' E 134°60'711.5
2018-Apr-24 13:26N 33°55' E 135°01'510.6
2018-Apr-24 13:00N 33°51' E 135°02'201 9.4
2018-Apr-23 15:32N 34°38' E 138°59'411.4
2018-Apr-23 15:13N 34°41' E 139°02'2410.0
2018-Apr-23 12:47N 34°58' E 139°23'3 8.7
2018-Apr-23 12:29N 34°59' E 139°26'5 9.7
2018-Apr-23 12:00N 35°01' E 139°31'510.6
2018-Apr-23 11:30N 35°03' E 139°37'611.3
2018-Apr-23 11:00N 35°07' E 139°42'611.0
2018-Apr-23 10:30N 35°12' E 139°45'510.2
2018-Apr-23 10:00N 35°17' E 139°45'510.6
2018-Apr-23 09:30N 35°21' E 139°42'510.2
2018-Apr-23 09:00N 35°26' E 139°45'611.1
2018-Apr-23 08:30N 35°29' E 139°50'510.4
2018-Apr-23 08:01N 35°33' E 139°54'510.6
2018-Apr-23 07:30N 35°38' E 139°58'3 0.8
2018-Apr-23 03:41N 35°40' E 139°57'211.0
2018-Apr-23 03:29N 35°39' E 139°58'511.3
2018-Apr-23 03:00N 35°34' E 139°55'611.9
2018-Apr-23 02:31N 35°29' E 139°52'611.1
2018-Apr-23 02:00N 35°26' E 139°45'510.4
2018-Apr-23 01:30N 35°28' E 139°39'0 0.1
2018-Apr-23 01:00N 35°28' E 139°39'0 0.0
2018-Apr-23 00:30N 35°28' E 139°39'0 0.0
2018-Apr-23 00:00N 35°28' E 139°39'0 0.0
2018-Apr-22 23:30N 35°28' E 139°39'0 0.0
2018-Apr-22 23:00N 35°28' E 139°39'0 0.0
2018-Apr-22 22:30N 35°28' E 139°39'0 0.0
2018-Apr-22 22:00N 35°28' E 139°39'0 0.0
2018-Apr-22 21:30N 35°28' E 139°39'0 0.1
2018-Apr-22 21:00N 35°28' E 139°39'3 6.4
2018-Apr-22 20:30N 35°26' E 139°43'0 0.3
2018-Apr-22 20:00N 35°26' E 139°43'0 0.0
2018-Apr-22 19:30N 35°26' E 139°43'0 0.0
2018-Apr-22 19:00N 35°26' E 139°43'0 0.0
2018-Apr-22 18:30N 35°26' E 139°43'0 0.0
2018-Apr-22 18:00N 35°26' E 139°43'0 0.0
2018-Apr-22 17:31N 35°26' E 139°43'0 0.0
2018-Apr-22 17:00N 35°26' E 139°43'0 0.1
2018-Apr-22 16:30N 35°26' E 139°43'0 0.1
2018-Apr-22 16:01N 35°26' E 139°43'0 0.0
2018-Apr-22 15:30N 35°26' E 139°43'0 0.1
2018-Apr-22 15:00N 35°26' E 139°43'0 0.1
2018-Apr-22 14:30N 35°26' E 139°43'0 0.0
2018-Apr-22 14:00N 35°26' E 139°43'0 0.0
2018-Apr-22 13:31N 35°26' E 139°43'0 0.0
2018-Apr-22 13:01N 35°26' E 139°43'0 0.1
2018-Apr-22 12:30N 35°26' E 139°43'0 0.1
2018-Apr-22 12:00N 35°26' E 139°43'0 0.0
2018-Apr-22 11:30N 35°26' E 139°43'0 0.0
2018-Apr-22 11:00N 35°26' E 139°43'0 0.4
2018-Apr-22 10:30N 35°26' E 139°43'510.5
2018-Apr-22 10:01N 35°21' E 139°43'611.0
2018-Apr-22 09:30N 35°16' E 139°46'510.9
2018-Apr-22 09:00N 35°11' E 139°46'611.1
2018-Apr-22 08:30N 35°05' E 139°44'611.2
2018-Apr-22 08:00N 35°01' E 139°39'611.1
2018-Apr-22 07:30N 34°58' E 139°34'712.5
2018-Apr-22 06:58N 34°54' E 139°27'713.6
2018-Apr-22 06:28N 34°50' E 139°20'612.9
2018-Apr-22 06:00N 34°47' E 139°14'713.1
2018-Apr-22 05:26N 34°42' E 139°07'512.0
2018-Apr-22 05:00N 34°39' E 139°02'611.9
2018-Apr-22 04:31N 34°35' E 138°57'611.8
2018-Apr-22 04:00N 34°34' E 138°50'611.4
2018-Apr-22 03:30N 34°34' E 138°43'611.7
2018-Apr-22 02:58N 34°33' E 138°35'611.6
2018-Apr-22 02:28N 34°33' E 138°28'510.9
2018-Apr-22 01:58N 34°32' E 138°22'1010.9
2018-Apr-22 01:02N 34°29' E 138°10'410.6
2018-Apr-22 00:39N 34°28' E 138°05'14710.0
2018-Apr-21 10:01N 33°23' E 135°26'1910.9
2018-Apr-21 08:15N 33°20' E 135°04'310.8
2018-Apr-21 08:00N 33°19' E 135°00'610.8
2018-Apr-21 07:29N 33°18' E 134°54'510.9
2018-Apr-21 07:00N 33°18' E 134°48'610.9
2018-Apr-21 06:30N 33°17' E 134°41'510.8
2018-Apr-21 06:00N 33°16' E 134°35'510.9
2018-Apr-21 05:30N 33°14' E 134°28'510.6
2018-Apr-21 05:01N 33°13' E 134°22'510.2
2018-Apr-21 04:31N 33°12' E 134°16'510.8
2018-Apr-21 04:01N 33°11' E 134°10'103 5.3
2018-Apr-20 08:44N 33°32' E 132°10'413.0
2018-Apr-20 08:24N 33°34' E 132°13'513.1
2018-Apr-20 07:59N 33°38' E 132°18'613.3
2018-Apr-20 07:30N 33°43' E 132°24'813.6
2018-Apr-20 06:57N 33°48' E 132°30'613.5
2018-Apr-20 06:30N 33°52' E 132°35'713.4
2018-Apr-20 06:00N 33°57' E 132°41'6 0.3
2018-Apr-19 09:29N 34°01' E 132°46'5 9.6
2018-Apr-19 09:00N 33°57' E 132°43'4 8.6
2018-Apr-19 08:30N 33°55' E 132°39'39 9.6
2018-Apr-19 04:25N 33°26' E 132°06'5 9.1
2018-Apr-19 03:51N 33°23' E 132°02'3 7.8
2018-Apr-19 03:26N 33°20' E 131°60'6 0.5
2018-Apr-18 15:20N 33°21' E 131°52'412.8
2018-Apr-18 15:00N 33°25' E 131°52'712.2
2018-Apr-18 14:24N 33°32' E 131°49'612.4
2018-Apr-18 13:57N 33°37' E 131°45'612.7
2018-Apr-18 13:30N 33°41' E 131°41'612.1
2018-Apr-18 13:00N 33°43' E 131°34'611.7
2018-Apr-18 12:30N 33°46' E 131°27'611.6
2018-Apr-18 12:00N 33°48' E 131°21'611.5
2018-Apr-18 11:30N 33°50' E 131°15'611.2
2018-Apr-18 11:00N 33°53' E 131°09'611.7
2018-Apr-18 10:31N 33°56' E 131°03'5 9.4
2018-Apr-18 10:00N 33°58' E 130°58'5 9.6
2018-Apr-18 09:30N 33°55' E 130°53'2 3.8
2018-Apr-18 09:00N 33°54' E 130°51'0 0.0
2018-Apr-18 08:30N 33°54' E 130°51'0 0.0
2018-Apr-18 08:00N 33°54' E 130°51'0 0.0
2018-Apr-18 07:30N 33°54' E 130°51'0 0.0
2018-Apr-18 07:00N 33°54' E 130°51'0 0.0
2018-Apr-18 06:30N 33°54' E 130°51'0 0.0
2018-Apr-18 06:00N 33°54' E 130°51'0 0.0
2018-Apr-18 05:30N 33°54' E 130°51'0 0.0
2018-Apr-18 05:00N 33°54' E 130°51'0 0.0
2018-Apr-18 04:30N 33°54' E 130°51'0 0.0
2018-Apr-18 04:00N 33°54' E 130°51'0 0.0
2018-Apr-18 03:30N 33°54' E 130°51'0 0.0
2018-Apr-18 03:00N 33°54' E 130°51'0 0.0
2018-Apr-18 02:30N 33°54' E 130°51'0 0.0
2018-Apr-18 02:00N 33°54' E 130°51'3 5.6
2018-Apr-18 01:31N 33°54' E 130°55'612.9
2018-Apr-18 01:00N 33°59' E 131°01'611.7
2018-Apr-18 00:30N 33°56' E 131°07'611.7
2018-Apr-18 00:00N 33°53' E 131°12'611.6
2018-Apr-17 23:30N 33°50' E 131°19'611.3
2018-Apr-17 23:00N 33°49' E 131°26'611.2
2018-Apr-17 22:30N 33°46' E 131°31'612.1
2018-Apr-17 21:59N 33°42' E 131°37'611.9
2018-Apr-17 21:30N 33°40' E 131°44'612.0
2018-Apr-17 21:00N 33°35' E 131°48'711.7
2018-Apr-17 20:27N 33°29' E 131°50'510.6
2018-Apr-17 19:59N 33°24' E 131°52'510.4
2018-Apr-17 19:30N 33°20' E 131°56'15 9.1
2018-Apr-17 17:53N 33°10' E 132°09'355 9.9
2018-Apr-16 06:09N 34°40' E 139°02'311.4
2018-Apr-16 05:54N 34°43' E 139°04'2210.8
2018-Apr-16 03:54N 34°58' E 139°23'4 9.4
2018-Apr-16 03:27N 35°00' E 139°27'4 9.7
2018-Apr-16 03:00N 35°02' E 139°32'510.5
2018-Apr-16 02:30N 35°05' E 139°37'611.2
2018-Apr-16 01:59N 35°08' E 139°43'611.6
2018-Apr-16 01:30N 35°13' E 139°46'611.3
2018-Apr-16 01:00N 35°18' E 139°43'510.8
2018-Apr-16 00:30N 35°24' E 139°43'610.9
2018-Apr-16 00:00N 35°27' E 139°48'510.9
2018-Apr-15 23:30N 35°30' E 139°54'510.2
2018-Apr-15 23:00N 35°28' E 139°59'0 0.7
2018-Apr-15 22:30N 35°27' E 139°59'0 0.0
2018-Apr-15 21:59N 35°27' E 139°59'0 0.0
2018-Apr-15 21:30N 35°27' E 139°59'0 0.0
2018-Apr-15 21:00N 35°27' E 139°59'0 0.0
2018-Apr-15 20:30N 35°27' E 139°59'0 0.0
2018-Apr-15 20:00N 35°27' E 139°59'0 0.0
2018-Apr-15 19:30N 35°27' E 139°59'0 0.0
2018-Apr-15 19:00N 35°27' E 139°59'0 0.0
2018-Apr-15 18:30N 35°27' E 139°59'0 0.0
2018-Apr-15 18:00N 35°27' E 139°59'0 0.0
2018-Apr-15 17:30N 35°27' E 139°59'0 0.0
2018-Apr-15 17:00N 35°27' E 139°59'0 0.0
2018-Apr-15 16:30N 35°27' E 139°59'0 0.0
2018-Apr-15 16:00N 35°27' E 139°59'0 0.0
2018-Apr-15 15:30N 35°27' E 139°59'0 0.0
2018-Apr-15 15:00N 35°27' E 139°59'0 0.0
2018-Apr-15 14:30N 35°27' E 139°59'0 0.1
2018-Apr-15 14:00N 35°27' E 139°60'0 0.1
2018-Apr-15 13:30N 35°27' E 139°59'0 0.0
2018-Apr-15 13:00N 35°27' E 139°59'  
Track history (hours):
 
Tides and Currents Weather Stations Pressure Air Temp Water Temp Dewpoint Dewpoint Depression Visibility Wind Speed Wind Dir Waves Ship Positions

Souhou Maru

Last reported at 2018-Apr-25 13:00 UTC. Time now 2018-Apr-25 16:13 UTC.
Position N 33°47' E 135°05'.

Length 70 m; draft 3.8 m.

Type: Cargo ship. MMSI: 431005315.

Date/timePositionNaut miles runAvg speedWind from/ knotsBaromVisibWave heightAir tempDewpointWater temp
2018-Apr-25 13:00N 33°47' E 135°05'612.6
2018-Apr-25 12:30N 33°53' E 135°02'612.4
2018-Apr-25 11:59N 33°59' E 135°01'612.2
2018-Apr-25 11:31N 34°05' E 135°01'612.2
2018-Apr-25 11:01N 34°11' E 135°02'612.2
2018-Apr-25 10:30N 34°17' E 135°04'612.1
2018-Apr-25 10:00N 34°23' E 135°07'612.8
2018-Apr-25 09:31N 34°27' E 135°12'612.6
2018-Apr-25 09:00N 34°32' E 135°17'612.6
2018-Apr-25 08:30N 34°36' E 135°23'4 8.2
2018-Apr-25 08:00N 34°35' E 135°27'0 0.0
2018-Apr-25 07:31N 34°35' E 135°27'0 0.0
2018-Apr-25 07:01N 34°35' E 135°27'0 0.0
2018-Apr-25 06:31N 34°35' E 135°27'0 0.0
2018-Apr-25 06:00N 34°35' E 135°27'0 0.0
2018-Apr-25 05:30N 34°35' E 135°27'0 0.0
2018-Apr-25 05:00N 34°35' E 135°27'0 0.0
2018-Apr-25 04:30N 34°35' E 135°27'0 0.0
2018-Apr-25 04:00N 34°35' E 135°27'0 0.0
2018-Apr-25 03:30N 34°35' E 135°27'0 0.0
2018-Apr-25 03:01N 34°35' E 135°27'0 0.0
2018-Apr-25 02:31N 34°35' E 135°27'0 0.0
2018-Apr-25 02:00N 34°35' E 135°27'0 0.0
2018-Apr-25 01:30N 34°35' E 135°27'0 0.0
2018-Apr-25 01:00N 34°35' E 135°27'0 0.0
2018-Apr-25 00:31N 34°35' E 135°27'0 0.0
2018-Apr-25 00:01N 34°35' E 135°27'0 0.0
2018-Apr-24 23:31N 34°35' E 135°27'0 0.0
2018-Apr-24 23:01N 34°35' E 135°27'2 3.6
2018-Apr-24 22:31N 34°36' E 135°25'3 5.3
2018-Apr-24 22:00N 34°36' E 135°22'0 0.0
2018-Apr-24 21:31N 34°36' E 135°22'0 0.0
2018-Apr-24 21:00N 34°36' E 135°22'0 0.0
2018-Apr-24 20:31N 34°36' E 135°22'0 0.1
2018-Apr-24 20:00N 34°36' E 135°22'0 0.1
2018-Apr-24 19:30N 34°36' E 135°22'0 0.1
2018-Apr-24 19:00N 34°36' E 135°22'0 0.0
2018-Apr-24 18:30N 34°36' E 135°22'0 0.1
2018-Apr-24 18:00N 34°36' E 135°22'3 5.2
2018-Apr-24 17:31N 34°34' E 135°20'611.0
2018-Apr-24 17:00N 34°30' E 135°15'611.0
2018-Apr-24 16:30N 34°27' E 135°10'611.6
2018-Apr-24 16:00N 34°22' E 135°05'611.7
2018-Apr-24 15:30N 34°18' E 135°00'5 9.7
2018-Apr-24 15:00N 34°13' E 134°59'611.1
2018-Apr-24 14:30N 34°08' E 134°60'611.7
2018-Apr-24 14:01N 34°02' E 134°60'711.5
2018-Apr-24 13:26N 33°55' E 135°01'510.6
2018-Apr-24 13:00N 33°51' E 135°02'201 9.4
2018-Apr-23 15:32N 34°38' E 138°59'411.4
2018-Apr-23 15:13N 34°41' E 139°02'2410.0
2018-Apr-23 12:47N 34°58' E 139°23'3 8.7
2018-Apr-23 12:29N 34°59' E 139°26'5 9.7
2018-Apr-23 12:00N 35°01' E 139°31'510.6
2018-Apr-23 11:30N 35°03' E 139°37'611.3
2018-Apr-23 11:00N 35°07' E 139°42'611.0
2018-Apr-23 10:30N 35°12' E 139°45'510.2
2018-Apr-23 10:00N 35°17' E 139°45'510.6
2018-Apr-23 09:30N 35°21' E 139°42'510.2
2018-Apr-23 09:00N 35°26' E 139°45'611.1
2018-Apr-23 08:30N 35°29' E 139°50'510.4
2018-Apr-23 08:01N 35°33' E 139°54'510.6
2018-Apr-23 07:30N 35°38' E 139°58'3 0.8
2018-Apr-23 03:41N 35°40' E 139°57'211.0
2018-Apr-23 03:29N 35°39' E 139°58'511.3
2018-Apr-23 03:00N 35°34' E 139°55'611.9
2018-Apr-23 02:31N 35°29' E 139°52'611.1
2018-Apr-23 02:00N 35°26' E 139°45'510.4
2018-Apr-23 01:30N 35°28' E 139°39'0 0.1
2018-Apr-23 01:00N 35°28' E 139°39'0 0.0
2018-Apr-23 00:30N 35°28' E 139°39'0 0.0
2018-Apr-23 00:00N 35°28' E 139°39'0 0.0
2018-Apr-22 23:30N 35°28' E 139°39'0 0.0
2018-Apr-22 23:00N 35°28' E 139°39'0 0.0
2018-Apr-22 22:30N 35°28' E 139°39'0 0.0
2018-Apr-22 22:00N 35°28' E 139°39'0 0.0
2018-Apr-22 21:30N 35°28' E 139°39'0 0.1
2018-Apr-22 21:00N 35°28' E 139°39'3 6.4
2018-Apr-22 20:30N 35°26' E 139°43'0 0.3
2018-Apr-22 20:00N 35°26' E 139°43'0 0.0
2018-Apr-22 19:30N 35°26' E 139°43'0 0.0
2018-Apr-22 19:00N 35°26' E 139°43'0 0.0
2018-Apr-22 18:30N 35°26' E 139°43'0 0.0
2018-Apr-22 18:00N 35°26' E 139°43'0 0.0
2018-Apr-22 17:31N 35°26' E 139°43'0 0.0
2018-Apr-22 17:00N 35°26' E 139°43'0 0.1
2018-Apr-22 16:30N 35°26' E 139°43'0 0.1
2018-Apr-22 16:01N 35°26' E 139°43'0 0.0
2018-Apr-22 15:30N 35°26' E 139°43'0 0.1
2018-Apr-22 15:00N 35°26' E 139°43'0 0.1
2018-Apr-22 14:30N 35°26' E 139°43'0 0.0
2018-Apr-22 14:00N 35°26' E 139°43'0 0.0
2018-Apr-22 13:31N 35°26' E 139°43'0 0.0
2018-Apr-22 13:01N 35°26' E 139°43'0 0.1
2018-Apr-22 12:30N 35°26' E 139°43'0 0.1
2018-Apr-22 12:00N 35°26' E 139°43'0 0.0
2018-Apr-22 11:30N 35°26' E 139°43'0 0.0
2018-Apr-22 11:00N 35°26' E 139°43'0 0.4
2018-Apr-22 10:30N 35°26' E 139°43'510.5
2018-Apr-22 10:01N 35°21' E 139°43'611.0
2018-Apr-22 09:30N 35°16' E 139°46'510.9
2018-Apr-22 09:00N 35°11' E 139°46'611.1
2018-Apr-22 08:30N 35°05' E 139°44'611.2
2018-Apr-22 08:00N 35°01' E 139°39'611.1
2018-Apr-22 07:30N 34°58' E 139°34'712.5
2018-Apr-22 06:58N 34°54' E 139°27'713.6
2018-Apr-22 06:28N 34°50' E 139°20'612.9
2018-Apr-22 06:00N 34°47' E 139°14'713.1
2018-Apr-22 05:26N 34°42' E 139°07'512.0
2018-Apr-22 05:00N 34°39' E 139°02'611.9
2018-Apr-22 04:31N 34°35' E 138°57'611.8
2018-Apr-22 04:00N 34°34' E 138°50'611.4
2018-Apr-22 03:30N 34°34' E 138°43'611.7
2018-Apr-22 02:58N 34°33' E 138°35'611.6
2018-Apr-22 02:28N 34°33' E 138°28'510.9
2018-Apr-22 01:58N 34°32' E 138°22'1010.9
2018-Apr-22 01:02N 34°29' E 138°10'410.6
2018-Apr-22 00:39N 34°28' E 138°05'14710.0
2018-Apr-21 10:01N 33°23' E 135°26'1910.9
2018-Apr-21 08:15N 33°20' E 135°04'310.8
2018-Apr-21 08:00N 33°19' E 135°00'610.8
2018-Apr-21 07:29N 33°18' E 134°54'510.9
2018-Apr-21 07:00N 33°18' E 134°48'610.9
2018-Apr-21 06:30N 33°17' E 134°41'510.8
2018-Apr-21 06:00N 33°16' E 134°35'510.9
2018-Apr-21 05:30N 33°14' E 134°28'510.6
2018-Apr-21 05:01N 33°13' E 134°22'510.2
2018-Apr-21 04:31N 33°12' E 134°16'510.8
2018-Apr-21 04:01N 33°11' E 134°10'103 5.3
2018-Apr-20 08:44N 33°32' E 132°10'413.0
2018-Apr-20 08:24N 33°34' E 132°13'513.1
2018-Apr-20 07:59N 33°38' E 132°18'613.3
2018-Apr-20 07:30N 33°43' E 132°24'813.6
2018-Apr-20 06:57N 33°48' E 132°30'613.5
2018-Apr-20 06:30N 33°52' E 132°35'713.4
2018-Apr-20 06:00N 33°57' E 132°41'6 0.3
2018-Apr-19 09:29N 34°01' E 132°46'5 9.6
2018-Apr-19 09:00N 33°57' E 132°43'4 8.6
2018-Apr-19 08:30N 33°55' E 132°39'39 9.6
2018-Apr-19 04:25N 33°26' E 132°06'5 9.1
2018-Apr-19 03:51N 33°23' E 132°02'3 7.8
2018-Apr-19 03:26N 33°20' E 131°60'6 0.5
2018-Apr-18 15:20N 33°21' E 131°52'412.8
2018-Apr-18 15:00N 33°25' E 131°52'712.2
2018-Apr-18 14:24N 33°32' E 131°49'612.4
2018-Apr-18 13:57N 33°37' E 131°45'612.7
2018-Apr-18 13:30N 33°41' E 131°41'612.1
2018-Apr-18 13:00N 33°43' E 131°34'611.7
2018-Apr-18 12:30N 33°46' E 131°27'611.6
2018-Apr-18 12:00N 33°48' E 131°21'611.5
2018-Apr-18 11:30N 33°50' E 131°15'611.2
2018-Apr-18 11:00N 33°53' E 131°09'611.7
2018-Apr-18 10:31N 33°56' E 131°03'5 9.4
2018-Apr-18 10:00N 33°58' E 130°58'5 9.6
2018-Apr-18 09:30N 33°55' E 130°53'2 3.8
2018-Apr-18 09:00N 33°54' E 130°51'0 0.0
2018-Apr-18 08:30N 33°54' E 130°51'0 0.0
2018-Apr-18 08:00N 33°54' E 130°51'0 0.0
2018-Apr-18 07:30N 33°54' E 130°51'0 0.0
2018-Apr-18 07:00N 33°54' E 130°51'0 0.0
2018-Apr-18 06:30N 33°54' E 130°51'0 0.0
2018-Apr-18 06:00N 33°54' E 130°51'0 0.0
2018-Apr-18 05:30N 33°54' E 130°51'0 0.0
2018-Apr-18 05:00N 33°54' E 130°51'0 0.0
2018-Apr-18 04:30N 33°54' E 130°51'0 0.0
2018-Apr-18 04:00N 33°54' E 130°51'0 0.0
2018-Apr-18 03:30N 33°54' E 130°51'0 0.0
2018-Apr-18 03:00N 33°54' E 130°51'0 0.0
2018-Apr-18 02:30N 33°54' E 130°51'0 0.0
2018-Apr-18 02:00N 33°54' E 130°51'3 5.6
2018-Apr-18 01:31N 33°54' E 130°55'612.9
2018-Apr-18 01:00N 33°59' E 131°01'611.7
2018-Apr-18 00:30N 33°56' E 131°07'611.7
2018-Apr-18 00:00N 33°53' E 131°12'611.6
2018-Apr-17 23:30N 33°50' E 131°19'611.3
2018-Apr-17 23:00N 33°49' E 131°26'611.2
2018-Apr-17 22:30N 33°46' E 131°31'612.1
2018-Apr-17 21:59N 33°42' E 131°37'611.9
2018-Apr-17 21:30N 33°40' E 131°44'612.0
2018-Apr-17 21:00N 33°35' E 131°48'711.7
2018-Apr-17 20:27N 33°29' E 131°50'510.6
2018-Apr-17 19:59N 33°24' E 131°52'510.4
2018-Apr-17 19:30N 33°20' E 131°56'15 9.1
2018-Apr-17 17:53N 33°10' E 132°09'355 9.9
2018-Apr-16 06:09N 34°40' E 139°02'311.4
2018-Apr-16 05:54N 34°43' E 139°04'2210.8
2018-Apr-16 03:54N 34°58' E 139°23'4 9.4
2018-Apr-16 03:27N 35°00' E 139°27'4 9.7
2018-Apr-16 03:00N 35°02' E 139°32'510.5
2018-Apr-16 02:30N 35°05' E 139°37'611.2
2018-Apr-16 01:59N 35°08' E 139°43'611.6
2018-Apr-16 01:30N 35°13' E 139°46'611.3
2018-Apr-16 01:00N 35°18' E 139°43'510.8
2018-Apr-16 00:30N 35°24' E 139°43'610.9
2018-Apr-16 00:00N 35°27' E 139°48'510.9
2018-Apr-15 23:30N 35°30' E 139°54'510.2
2018-Apr-15 23:00N 35°28' E 139°59'0 0.7
2018-Apr-15 22:30N 35°27' E 139°59'0 0.0
2018-Apr-15 21:59N 35°27' E 139°59'0 0.0
2018-Apr-15 21:30N 35°27' E 139°59'0 0.0
2018-Apr-15 21:00N 35°27' E 139°59'0 0.0
2018-Apr-15 20:30N 35°27' E 139°59'0 0.0
2018-Apr-15 20:00N 35°27' E 139°59'0 0.0
2018-Apr-15 19:30N 35°27' E 139°59'0 0.0
2018-Apr-15 19:00N 35°27' E 139°59'0 0.0
2018-Apr-15 18:30N 35°27' E 139°59'0 0.0
2018-Apr-15 18:00N 35°27' E 139°59'0 0.0
2018-Apr-15 17:30N 35°27' E 139°59'0 0.0
2018-Apr-15 17:00N 35°27' E 139°59'0 0.0
2018-Apr-15 16:30N 35°27' E 139°59'0 0.0
2018-Apr-15 16:00N 35°27' E 139°59'0 0.0
2018-Apr-15 15:30N 35°27' E 139°59'0 0.0
2018-Apr-15 15:00N 35°27' E 139°59'0 0.0
2018-Apr-15 14:30N 35°27' E 139°59'0 0.1
2018-Apr-15 14:00N 35°27' E 139°60'0 0.1
2018-Apr-15 13:30N 35°27' E 139°59'0 0.0
2018-Apr-15 13:00N 35°27' E 139°59'  

Dump ship's entire track history